Time;durP1;ratioP1;P1;durP2;ratioP2;P2;SDS_P1;SDS_P2;PMS_P1;PMS_P2;Temp;Humidity;BMP_temperature;BMP_pressure;BME280_temperature;BME280_humidity;BME280_pressure;Samples;Min_cycle;Max_cycle;Signal;HPM_P1;HPM_P2
2021/10/29 03:31:50;;;;;;;28.27;20.27;;;;;;;9.05;59.69;98649.00;7732416;22;20307;-81
2021/10/29 03:35:12;;;;;;;32.53;16.83;;;;;;;8.74;60.13;98645.13;6941433;28;20701;-80
2021/10/29 03:38:44;;;;;;;27.77;19.30;;;;;;;8.81;60.39;98637.91;6945001;28;20213;-80
2021/10/29 03:42:13;;;;;;;29.63;18.40;;;;;;;8.44;60.71;98640.16;6945974;28;20940;-80
2021/10/29 03:45:41;;;;;;;32.13;20.07;;;;;;;8.37;60.91;98578.31;6946212;28;20234;-80
2021/10/29 03:49:09;;;;;;;32.97;21.03;;;;;;;8.56;61.01;98604.50;6946513;28;20221;-80
2021/10/29 03:52:34;;;;;;;32.07;18.77;;;;;;;8.64;60.33;98604.31;6945819;28;20238;-80
2021/10/29 03:55:58;;;;;;;29.37;18.87;;;;;;;8.42;61.81;98618.03;6946694;28;20222;-80
2021/10/29 03:59:20;;;;;;;26.73;18.43;;;;;;;8.85;60.52;98628.41;6946533;28;20564;-80
2021/10/29 04:02:42;;;;;;;24.00;15.57;;;;;;;8.73;60.79;98635.38;6944947;28;20333;-80
2021/10/29 04:06:04;;;;;;;24.20;16.13;;;;;;;8.58;61.44;98626.59;6946323;28;20606;-80
2021/10/29 04:09:26;;;;;;;26.07;15.97;;;;;;;8.63;61.43;98632.22;6925637;28;20205;-80
2021/10/29 04:12:48;;;;;;;24.93;16.57;;;;;;;8.61;61.02;98641.50;6917515;28;20319;-80
2021/10/29 04:16:09;;;;;;;33.70;17.70;;;;;;;8.77;61.01;98625.91;6918224;28;20263;-80
2021/10/29 04:19:31;;;;;;;24.37;18.27;;;;;;;9.16;59.78;98637.66;6923527;28;20255;-80
2021/10/29 04:22:54;;;;;;;23.47;15.00;;;;;;;8.94;60.26;98635.28;6922999;28;20233;-80
2021/10/29 04:26:15;;;;;;;24.40;15.97;;;;;;;8.82;60.40;98636.03;6914158;28;20205;-80
2021/10/29 04:29:39;;;;;;;49.97;27.67;;;;;;;8.73;60.96;98639.94;6923162;28;20205;-80
2021/10/29 04:33:02;;;;;;;30.47;18.87;;;;;;;8.14;62.01;98623.34;6922709;28;20269;-80
2021/10/29 04:36:25;;;;;;;23.13;16.27;;;;;;;7.80;62.85;98636.69;6922749;28;20227;-80
2021/10/29 04:39:48;;;;;;;25.27;16.50;;;;;;;7.90;63.37;98615.69;6921742;28;20243;-80
2021/10/29 04:43:11;;;;;;;26.13;17.53;;;;;;;8.26;62.25;98629.88;6904780;28;20313;-80
2021/10/29 04:46:33;;;;;;;24.73;16.40;;;;;;;8.42;62.12;98642.19;6895015;28;20200;-80
2021/10/29 04:49:54;;;;;;;24.90;16.63;;;;;;;7.74;63.74;98602.56;6895705;28;20610;-80
2021/10/29 04:53:16;;;;;;;27.57;17.97;;;;;;;8.54;62.75;98627.19;6894520;28;20230;-80
2021/10/29 04:56:39;;;;;;;25.07;18.07;;;;;;;8.61;60.88;98615.44;6895608;28;20255;-81
2021/10/29 05:00:03;;;;;;;25.47;17.43;;;;;;;8.62;60.43;98614.44;6894820;28;20206;-80
2021/10/29 05:03:25;;;;;;;23.43;16.10;;;;;;;8.75;59.81;98606.47;6893875;28;20600;-80
2021/10/29 05:06:46;;;;;;;25.07;15.80;;;;;;;8.43;60.83;98606.25;6894845;28;20212;-80
2021/10/29 05:10:08;;;;;;;25.13;16.73;;;;;;;8.32;60.97;98618.34;6895950;28;20239;-80
2021/10/29 05:13:32;;;;;;;27.73;16.47;;;;;;;7.75;61.49;98557.75;6895162;28;20693;-80
2021/10/29 05:16:53;;;;;;;23.13;16.30;;;;;;;8.33;61.43;98624.56;6900470;28;20226;-80
2021/10/29 05:20:16;;;;;;;24.63;15.87;;;;;;;8.30;61.60;98585.50;6895605;28;20219;-80
2021/10/29 05:23:38;;;;;;;23.17;16.73;;;;;;;7.90;63.13;98577.31;6895530;28;20214;-80
2021/10/29 05:26:59;;;;;;;27.53;17.80;;;;;;;8.88;62.28;98611.91;6895799;28;20205;-80
2021/10/29 05:30:22;;;;;;;23.17;16.83;;;;;;;9.09;61.32;98614.50;6916031;28;20654;-81
2021/10/29 05:33:44;;;;;;;23.67;18.20;;;;;;;9.46;62.27;98600.53;6922519;28;20199;-81
2021/10/29 05:37:05;;;;;;;24.80;17.53;;;;;;;9.76;62.62;98616.16;6909120;28;20314;-80
2021/10/29 05:40:27;;;;;;;24.30;17.53;;;;;;;9.93;61.78;98611.19;6909475;28;20602;-80
2021/10/29 05:43:49;;;;;;;22.20;17.27;;;;;;;10.21;62.20;98604.59;6909455;28;20243;-80
2021/10/29 05:47:12;;;;;;;23.87;16.83;;;;;;;10.08;62.19;98580.38;6911845;28;20210;-80
2021/10/29 05:50:35;;;;;;;22.07;16.63;;;;;;;10.48;61.34;98589.25;6900008;28;20249;-79
2021/10/29 05:54:10;;;;;;;21.47;17.10;;;;;;;10.42;60.19;98587.38;6923852;28;20206;-80
2021/10/29 05:57:31;;;;;;;22.10;15.33;;;;;;;9.43;59.73;98496.00;6899157;28;20238;-79
2021/10/29 06:00:53;;;;;;;21.63;16.43;;;;;;;9.69;60.75;98588.38;6895335;28;20731;-81
2021/10/29 06:04:16;;;;;;;21.87;17.03;;;;;;;9.13;61.42;98590.72;6892613;28;20219;-80
2021/10/29 06:07:38;;;;;;;21.73;17.13;;;;;;;9.37;61.77;98588.28;6892818;28;20189;-80
2021/10/29 06:10:59;;;;;;;24.17;17.30;;;;;;;9.24;62.21;98593.63;6913954;28;20628;-82
2021/10/29 06:14:21;;;;;;;21.43;16.60;;;;;;;9.15;62.65;98554.53;6919641;28;20206;-80
2021/10/29 06:17:43;;;;;;;22.60;16.20;;;;;;;9.68;61.49;98570.56;6919226;28;20227;-81
2021/10/29 06:21:06;;;;;;;24.87;15.80;;;;;;;9.67;60.97;98565.38;6920506;28;20259;-81
2021/10/29 06:24:28;;;;;;;25.77;18.97;;;;;;;9.65;61.12;98589.84;6918973;28;20215;-81
2021/10/29 06:31:29;;;;;;;25.90;18.70;;;;;;;9.92;60.75;98602.28;6891195;28;20632;-80
2021/10/29 06:34:51;;;;;;;23.80;17.50;;;;;;;9.84;60.60;98602.47;6895104;28;20204;-80
2021/10/29 06:38:14;;;;;;;23.43;16.93;;;;;;;9.62;60.48;98579.47;6894840;28;20615;-80
2021/10/29 06:41:36;;;;;;;22.70;16.97;;;;;;;9.85;61.09;98598.75;6911385;28;20223;-81
2021/10/29 06:45:12;;;;;;;21.37;16.07;;;;;;;10.03;60.86;98604.41;6919972;28;20218;-80
2021/10/29 06:48:38;;;;;;;20.80;15.43;;;;;;;9.99;60.44;98603.09;6923098;28;20199;-81
2021/10/29 06:52:19;;;;;;;19.00;15.57;;;;;;;10.20;60.19;98591.34;6899738;28;20240;-80
2021/10/29 06:59:28;;;;;;;19.67;14.70;;;;;;;9.90;61.47;98595.44;6925987;28;20188;-80
2021/10/29 07:43:08;;;;;;;18.13;13.60;;;;;;;13.32;56.48;98583.94;6893727;28;20692;-81
2021/10/29 07:46:30;;;;;;;17.70;14.03;;;;;;;13.44;56.05;98584.81;6898439;28;20411;-80
2021/10/29 07:49:54;;;;;;;15.30;12.60;;;;;;;13.74;55.08;98597.31;6918943;28;20582;-80
2021/10/29 07:53:15;;;;;;;14.17;12.07;;;;;;;13.44;55.18;98593.78;6921510;28;20235;-80
2021/10/29 07:56:37;;;;;;;15.87;12.50;;;;;;;13.58;55.51;98592.53;6896950;28;20228;-80
2021/10/29 07:59:59;;;;;;;14.30;11.80;;;;;;;13.83;53.75;98560.72;6897341;28;20215;-80
2021/10/29 08:03:20;;;;;;;14.07;12.07;;;;;;;14.06;54.06;98596.03;6912580;28;20561;-80
2021/10/29 08:06:44;;;;;;;15.70;11.80;;;;;;;14.36;53.70;98585.97;6899248;28;20675;-80
2021/10/29 08:10:08;;;;;;;13.50;11.80;;;;;;;15.84;50.06;98566.09;6901567;28;20200;-81
2021/10/29 08:13:30;;;;;;;13.77;11.00;;;;;;;18.00;44.73;98585.34;6897125;28;20236;-79
2021/10/29 08:16:52;;;;;;;11.83;10.33;;;;;;;18.43;42.80;98557.91;6899277;28;20863;-81
2021/10/29 08:20:15;;;;;;;13.70;9.70;;;;;;;19.78;40.15;98583.28;6897070;28;20215;-81
2021/10/29 08:23:39;;;;;;;10.67;9.67;;;;;;;20.29;38.38;98549.44;6896655;28;20211;-82
2021/10/29 08:27:02;;;;;;;11.30;10.10;;;;;;;19.93;39.42;98582.50;6897256;28;20211;-81
2021/10/29 08:30:24;;;;;;;10.93;9.63;;;;;;;20.31;38.73;98580.13;6896517;28;20215;-80
2021/10/29 08:33:46;;;;;;;10.50;9.20;;;;;;;19.98;38.78;98561.44;6903107;28;20212;-82
2021/10/29 08:37:09;;;;;;;12.23;10.03;;;;;;;20.32;38.36;98561.78;6924550;28;20716;-81
2021/10/29 08:40:32;;;;;;;10.70;9.67;;;;;;;20.37;38.37;98567.25;6923847;28;20576;-81
2021/10/29 08:43:53;;;;;;;11.47;10.27;;;;;;;20.28;38.53;98571.66;6899788;28;20201;-80
2021/10/29 08:47:21;;;;;;;9.97;8.97;;;;;;;19.61;39.08;98565.44;6896732;28;20230;-81
2021/10/29 08:50:42;;;;;;;12.47;11.13;;;;;;;18.53;41.68;98565.34;6897105;28;20242;-81
2021/10/29 08:54:05;;;;;;;11.67;10.53;;;;;;;18.53;41.83;98559.91;6895686;28;20217;-85
2021/10/29 08:57:28;;;;;;;11.20;10.10;;;;;;;17.31;44.33;98531.63;6895248;28;20237;-81
2021/10/29 09:00:50;;;;;;;12.00;10.80;;;;;;;17.28;46.37;98567.56;6896403;28;20700;-80
2021/10/29 09:04:12;;;;;;;12.80;10.20;;;;;;;16.80;46.88;98561.19;6892654;28;20576;-79
2021/10/29 09:11:28;;;;;;;12.03;10.53;;;;;;;17.09;47.20;98551.75;6895259;28;20269;-79
2021/10/29 09:33:45;;;;;;;15.43;10.27;;;;;;;17.00;47.14;98524.16;6920095;28;20201;-80
2021/10/29 09:37:07;;;;;;;11.53;8.83;;;;;;;17.62;45.86;98519.19;6897017;28;20226;-80
2021/10/29 09:40:30;;;;;;;9.93;8.80;;;;;;;17.89;45.08;98495.47;6896658;28;20209;-80
2021/10/29 09:44:06;;;;;;;9.63;8.67;;;;;;;17.81;45.24;98504.13;6899246;28;20201;-80
2021/10/29 09:47:30;;;;;;;10.43;8.83;;;;;;;18.25;44.23;98520.06;6904995;28;20281;-80
2021/10/29 09:50:55;;;;;;;10.47;9.27;;;;;;;18.46;44.55;98513.69;6897636;28;20253;-81
2021/10/29 09:54:18;;;;;;;9.60;8.53;;;;;;;18.05;45.93;98516.34;6894118;28;20217;-80
2021/10/29 09:57:40;;;;;;;10.60;9.53;;;;;;;18.72;44.18;98499.13;6920663;28;20238;-80
2021/10/29 10:01:03;;;;;;;9.73;8.73;;;;;;;18.79;44.26;98521.56;6902511;28;20225;-80
2021/10/29 10:04:26;;;;;;;9.53;8.53;;;;;;;18.15;45.17;98524.59;6892267;28;20230;-80
2021/10/29 10:07:48;;;;;;;10.57;8.90;;;;;;;18.42;44.83;98531.72;6895710;28;20209;-80
2021/10/29 10:11:11;;;;;;;9.03;8.23;;;;;;;18.43;44.50;98532.50;6894724;28;20231;-81
2021/10/29 10:14:33;;;;;;;11.03;9.77;;;;;;;18.34;45.50;98515.00;6893597;28;20583;-80
2021/10/29 10:17:55;;;;;;;10.13;9.07;;;;;;;18.82;44.82;98518.28;6899278;28;20230;-81
2021/10/29 10:21:20;;;;;;;11.20;9.30;;;;;;;18.64;44.58;98505.06;6920665;28;20235;-80
2021/10/29 10:24:43;;;;;;;12.00;8.80;;;;;;;18.25;45.62;98492.78;6920592;28;20296;-81
2021/10/29 10:43:20;;;;;;;15.13;9.17;;;;;;;18.64;44.56;98487.88;6915258;28;20230;-80
2021/10/29 10:46:42;;;;;;;11.47;10.27;;;;;;;18.73;45.30;98491.75;6920502;28;20191;-79
2021/10/29 10:50:14;;;;;;;11.27;10.17;;;;;;;18.84;44.62;98457.94;6920401;28;20667;-79
2021/10/29 10:53:42;;;;;;;11.60;10.13;;;;;;;18.81;44.98;98486.59;6919944;28;20199;-80
2021/10/29 10:57:24;;;;;;;12.40;10.27;;;;;;;18.09;46.18;98488.28;6908215;28;20676;-80
2021/10/29 11:00:50;;;;;;;13.30;10.40;;;;;;;18.52;45.75;98484.53;6893225;28;20314;-81
2021/10/29 11:04:27;;;;;;;12.47;10.73;;;;;;;19.06;45.64;98470.34;6893034;28;20680;-80
2021/10/29 11:11:54;;;;;;;12.40;10.67;;;;;;;19.36;44.47;98467.75;6908845;28;20311;-80
2021/10/29 11:15:19;;;;;;;13.37;11.10;;;;;;;19.10;44.28;98473.38;6918383;28;20207;-80
2021/10/29 11:18:52;;;;;;;11.87;10.67;;;;;;;19.85;44.30;98460.72;6919906;28;20230;-80
2021/10/29 11:22:14;;;;;;;12.80;10.80;;;;;;;19.23;44.69;98442.84;6919263;28;20230;-80
2021/10/29 11:25:48;;;;;;;12.97;11.23;;;;;;;19.99;43.40;98431.72;6919999;28;20618;-80
2021/10/29 11:29:11;;;;;;;12.20;10.10;;;;;;;20.07;42.67;98417.53;6922137;28;20208;-80
2021/10/29 11:32:34;;;;;;;12.13;10.93;;;;;;;20.83;41.22;98436.22;6913923;28;20235;-79
2021/10/29 11:35:58;;;;;;;13.13;10.27;;;;;;;20.09;43.05;98409.00;6891888;28;20215;-79
2021/10/29 11:39:22;;;;;;;12.20;10.53;;;;;;;19.27;44.00;98433.81;6893079;28;20205;-80
2021/10/29 11:42:53;;;;;;;11.73;9.80;;;;;;;20.86;41.09;98429.38;6891956;28;20306;-81
2021/10/29 11:46:15;;;;;;;12.90;10.37;;;;;;;19.27;44.04;98424.81;6893376;28;20204;-79
2021/10/29 11:49:38;;;;;;;11.50;10.20;;;;;;;19.79;43.40;98404.34;6891478;28;20216;-80
2021/10/29 11:53:01;;;;;;;11.43;9.87;;;;;;;20.16;42.78;98415.06;6895118;28;20223;-79
2021/10/29 11:56:32;;;;;;;11.47;10.00;;;;;;;19.31;43.91;98414.97;6919670;28;20733;-80
2021/10/29 12:00:10;;;;;;;11.30;10.10;;;;;;;19.80;43.70;98375.91;6916614;28;20204;-80
2021/10/29 12:07:17;;;;;;;13.37;11.77;;;;;;;20.22;42.52;98383.84;6916503;28;20204;-79
2021/10/29 12:10:41;;;;;;;11.80;10.37;;;;;;;20.55;42.07;98374.97;6917514;28;20366;-80
2021/10/29 12:14:03;;;;;;;12.77;9.80;;;;;;;20.74;41.04;98365.06;6899602;28;20204;-80
2021/10/29 12:17:28;;;;;;;14.30;12.77;;;;;;;20.35;42.46;98362.16;6917979;28;20231;-81
2021/10/29 12:20:51;;;;;;;12.70;10.23;;;;;;;20.56;41.73;98361.00;6918552;28;20577;-80
2021/10/29 12:24:15;;;;;;;11.00;9.90;;;;;;;20.21;43.24;98332.88;6911954;28;20201;-80
2021/10/29 12:27:40;;;;;;;15.57;11.73;;;;;;;21.14;41.46;98363.75;6907362;28;20672;-81
2021/10/29 12:31:11;;;;;;;10.27;9.17;;;;;;;21.59;40.67;98335.19;6917649;28;20629;-85
2021/10/29 12:36:30;;;;;;;14.47;12.83;;;;;;;21.31;41.24;98344.19;6914009;28;20323;-79
2021/10/29 12:38:43;;;;;;;12.10;9.73;;;;;;;21.08;41.07;98319.38;6916410;28;20295;-80
2021/10/29 13:04:18;;;;;;;9.93;7.80;;;;;;;22.50;38.36;98319.50;6840621;28;20207;-79
2021/10/29 13:07:40;;;;;;;13.73;8.27;;;;;;;22.25;37.89;98312.31;6918185;28;20215;-80
2021/10/29 13:11:02;;;;;;;8.00;7.20;;;;;;;22.52;36.82;98301.59;6916560;28;20235;-79
2021/10/29 13:14:29;;;;;;;6.40;5.80;;;;;;;22.35;37.41;98306.72;6914725;28;20264;-79
2021/10/29 13:17:57;;;;;;;7.57;6.77;;;;;;;22.74;36.33;98307.38;6916934;28;20235;-79
2021/10/29 13:28:43;;;;;;;6.57;5.87;;;;;;;22.53;35.04;98297.72;6916313;28;20701;-79
2021/10/29 13:36:01;;;;;;;6.57;5.87;;;;;;;22.65;34.23;98280.84;6924322;28;20656;-79
2021/10/29 13:54:10;;;;;;;6.80;4.73;;;;;;;22.94;33.69;98265.84;6899889;28;20212;-79
2021/10/29 13:57:53;;;;;;;5.93;4.87;;;;;;;22.88;32.99;98261.53;6908956;28;20234;-79
2021/10/29 14:30:31;;;;;;;4.93;4.33;;;;;;;21.97;36.01;98263.78;6918455;28;20267;-79
2021/10/29 14:33:56;;;;;;;4.53;4.13;;;;;;;21.82;36.29;98268.59;6919195;28;20208;-81
2021/10/29 14:37:23;;;;;;;6.23;4.30;;;;;;;21.56;36.60;98240.56;6909969;28;20220;-80
2021/10/29 14:40:49;;;;;;;5.53;3.83;;;;;;;22.15;35.17;98262.19;6903568;28;20319;-80
2021/10/29 14:44:16;;;;;;;5.90;4.30;;;;;;;21.88;35.05;98250.94;6904465;28;20208;-80
2021/10/29 14:47:51;;;;;;;5.50;4.60;;;;;;;21.79;34.88;98250.78;6898718;28;20716;-80
2021/10/29 15:06:02;;;;;;;4.93;3.97;;;;;;;20.92;38.66;98260.31;6905739;28;20215;-80
2021/10/29 15:16:50;;;;;;;4.77;3.93;;;;;;;20.74;39.97;98266.41;6901338;28;20199;-79
2021/10/29 15:27:40;;;;;;;10.90;5.93;;;;;;;19.84;41.94;98277.69;6888636;28;20208;-79
2021/10/29 15:31:10;;;;;;;8.30;6.03;;;;;;;19.45;42.88;98284.84;6887280;28;20236;-80
2021/10/29 15:41:53;;;;;;;10.97;6.73;;;;;;;18.50;45.27;98284.66;6885986;28;20313;-79
2021/10/29 15:45:19;;;;;;;10.30;6.33;;;;;;;18.62;45.29;98283.34;6889963;28;20189;-79
2021/10/29 15:48:46;;;;;;;11.43;7.03;;;;;;;18.67;45.19;98298.91;6888509;28;20190;-79
2021/10/29 15:52:12;;;;;;;11.70;6.30;;;;;;;18.49;45.59;98299.41;6890113;28;20239;-79
2021/10/29 15:55:39;;;;;;;9.57;6.90;;;;;;;18.11;46.45;98307.94;6915395;28;20272;-79
2021/10/29 15:59:11;;;;;;;12.20;7.23;;;;;;;17.11;49.09;98296.28;6915250;28;20219;-79
2021/10/29 16:02:42;;;;;;;9.20;6.87;;;;;;;17.31;48.51;98301.91;6912312;28;20804;-79
2021/10/29 16:17:11;;;;;;;10.40;7.90;;;;;;;16.45;51.23;98293.97;6912480;28;20664;-78
2021/10/29 16:20:32;;;;;;;9.97;8.23;;;;;;;16.78;50.80;98299.22;6929070;28;20247;-78
2021/10/29 16:23:54;;;;;;;11.73;8.33;;;;;;;15.91;53.31;98306.56;6909823;28;20207;-79
2021/10/29 16:27:16;;;;;;;9.77;7.73;;;;;;;16.23;52.44;98302.09;6902504;28;20201;-78
2021/10/29 16:30:37;;;;;;;10.17;7.37;;;;;;;15.82;52.92;98277.34;6904748;28;20237;-79
2021/10/29 16:34:00;;;;;;;10.20;6.40;;;;;;;15.75;53.32;98293.03;6904193;28;20193;-79
2021/10/29 16:37:22;;;;;;;11.50;6.30;;;;;;;15.74;53.31;98307.69;6901968;28;20302;-78
2021/10/29 16:40:44;;;;;;;7.77;5.60;;;;;;;15.92;52.57;98296.53;6892317;28;20816;-78
2021/10/29 16:44:05;;;;;;;8.00;6.80;;;;;;;15.93;52.64;98298.19;6891525;28;20232;-78
2021/10/29 16:47:28;;;;;;;9.30;6.20;;;;;;;15.75;53.03;98299.28;6894361;28;20676;-79
2021/10/29 16:50:51;;;;;;;9.80;6.07;;;;;;;15.60;53.21;98274.59;6892045;28;20596;-79
2021/10/29 16:54:13;;;;;;;7.30;5.50;;;;;;;15.72;52.99;98290.78;6900700;28;20257;-79
2021/10/29 16:57:35;;;;;;;6.03;5.40;;;;;;;15.71;52.70;98306.31;6920902;28;20215;-79
2021/10/29 17:00:56;;;;;;;5.80;5.20;;;;;;;15.72;52.92;98310.66;6916840;28;20228;-79
2021/10/29 17:04:18;;;;;;;7.93;6.20;;;;;;;15.26;53.61;98300.13;6912533;28;20482;-78
2021/10/29 17:07:41;;;;;;;9.27;6.70;;;;;;;15.37;54.02;98293.81;6891359;28;20585;-78
2021/10/29 17:11:03;;;;;;;10.30;6.03;;;;;;;15.81;52.85;98305.63;6892143;28;20730;-79
2021/10/29 17:14:26;;;;;;;7.07;6.00;;;;;;;15.27;53.34;98307.19;6894799;28;20216;-79
2021/10/29 17:17:48;;;;;;;9.53;6.10;;;;;;;15.43;53.05;98281.97;6891840;28;20228;-84
2021/10/29 17:21:10;;;;;;;7.47;6.23;;;;;;;15.68;52.42;98293.19;6917615;28;20709;-79
2021/10/29 17:24:32;;;;;;;7.60;6.80;;;;;;;15.57;52.58;98299.56;6917570;28;20262;-79
2021/10/29 17:27:56;;;;;;;10.10;7.43;;;;;;;15.49;52.59;98299.97;6924022;28;20201;-80
2021/10/29 17:31:19;;;;;;;12.70;7.10;;;;;;;15.50;52.33;98288.03;6919856;28;20241;-79
2021/10/29 17:34:41;;;;;;;7.20;6.33;;;;;;;15.40;52.91;98287.06;6898067;28;20216;-82
2021/10/29 17:38:03;;;;;;;11.17;7.40;;;;;;;15.60;52.50;98312.66;6900061;28;20246;-79
2021/10/29 17:41:26;;;;;;;9.43;6.67;;;;;;;15.49;51.72;98277.41;6905304;28;20229;-79
2021/10/29 17:44:48;;;;;;;7.40;6.60;;;;;;;15.47;52.43;98304.00;6904327;28;20664;-79
2021/10/29 17:48:10;;;;;;;9.23;6.97;;;;;;;15.04;53.23;98295.69;6908237;28;20246;-79
2021/10/29 17:51:31;;;;;;;9.33;7.10;;;;;;;15.05;53.47;98300.03;6918109;28;20239;-79
2021/10/29 17:54:54;;;;;;;9.70;7.53;;;;;;;14.09;55.83;98278.38;6921473;28;20208;-80
2021/10/29 17:58:17;;;;;;;8.53;7.67;;;;;;;14.42;55.80;98296.69;6917910;28;20239;-79
2021/10/29 18:01:39;;;;;;;8.83;7.67;;;;;;;13.97;56.86;98311.97;6917552;28;20278;-79
2021/10/29 18:05:01;;;;;;;9.80;7.83;;;;;;;14.10;57.17;98309.03;6918590;28;20670;-79
2021/10/29 18:08:24;;;;;;;10.67;8.10;;;;;;;14.46;55.60;98314.13;6919358;28;20211;-79
2021/10/29 18:11:45;;;;;;;12.53;9.70;;;;;;;14.11;56.42;98318.78;6905218;28;20239;-79
2021/10/29 18:15:10;;;;;;;11.40;9.13;;;;;;;14.59;54.83;98319.25;6917172;28;20286;-79
2021/10/29 18:18:31;;;;;;;9.70;8.60;;;;;;;14.61;55.06;98309.81;6916982;28;20225;-79
2021/10/29 18:21:53;;;;;;;10.20;8.00;;;;;;;14.72;54.07;98308.09;6917247;28;20234;-78
2021/10/29 18:25:15;;;;;;;9.73;8.43;;;;;;;14.33;54.69;98309.78;6918010;28;20212;-79
2021/10/29 18:28:36;;;;;;;11.67;8.03;;;;;;;14.16;54.86;98310.78;6917292;28;20200;-79
2021/10/29 18:31:59;;;;;;;9.60;7.53;;;;;;;13.64;57.09;98300.97;6916674;28;20309;-84
2021/10/29 18:35:22;;;;;;;10.10;7.67;;;;;;;13.64;56.93;98296.34;6917957;28;20208;-80
2021/10/29 18:38:45;;;;;;;10.07;8.43;;;;;;;13.65;56.49;98292.59;6908413;28;20232;-80
2021/10/29 18:42:06;;;;;;;15.70;11.47;;;;;;;13.27;57.91;98299.56;6889395;28;20227;-79
2021/10/29 18:45:33;;;;;;;13.30;10.20;;;;;;;13.17;58.67;98313.63;6894527;28;20203;-79
2021/10/29 18:48:56;;;;;;;11.43;10.17;;;;;;;13.84;56.99;98313.06;6915495;28;20279;-79
2021/10/29 18:52:18;;;;;;;12.77;10.77;;;;;;;13.73;56.97;98308.47;6916945;28;20227;-80
2021/10/29 18:55:39;;;;;;;15.40;11.50;;;;;;;13.64;57.54;98303.66;6893480;28;20227;-79
2021/10/29 18:59:01;;;;;;;13.07;11.43;;;;;;;13.93;56.87;98308.09;6898099;28;20246;-79
2021/10/29 19:02:23;;;;;;;14.20;12.20;;;;;;;13.88;56.29;98256.50;6915142;28;20239;-79
2021/10/29 19:05:46;;;;;;;13.40;11.50;;;;;;;14.32;55.70;98313.56;6914892;28;20684;-79
2021/10/29 19:09:07;;;;;;;15.33;10.70;;;;;;;14.13;55.80;98314.78;6889133;28;20683;-79
2021/10/29 19:12:29;;;;;;;14.03;10.70;;;;;;;14.11;56.13;98311.47;6887687;28;20697;-79
2021/10/29 19:15:51;;;;;;;19.73;11.93;;;;;;;13.78;56.88;98315.88;6906423;28;20215;-79
2021/10/29 19:19:14;;;;;;;13.13;10.60;;;;;;;13.88;57.76;98300.69;6915440;28;20727;-79
2021/10/29 19:22:38;;;;;;;14.17;10.43;;;;;;;14.41;56.26;98290.44;6914546;28;20223;-81
2021/10/29 19:25:59;;;;;;;12.77;11.23;;;;;;;14.33;55.60;98306.28;6915684;28;20766;-79
2021/10/29 19:29:21;;;;;;;12.47;10.50;;;;;;;14.29;55.96;98318.66;6910991;28;20200;-80
2021/10/29 19:32:42;;;;;;;12.37;10.63;;;;;;;14.15;56.77;98318.06;6887193;28;20723;-79
2021/10/29 19:36:08;;;;;;;11.97;9.87;;;;;;;14.37;56.52;98310.97;6887808;28;20204;-79
2021/10/29 19:39:50;;;;;;;12.97;11.23;;;;;;;14.53;56.05;98310.22;6901237;28;20588;-79
2021/10/29 19:43:12;;;;;;;12.23;10.97;;;;;;;14.44;55.30;98316.25;6913971;28;20591;-79
2021/10/29 19:46:34;;;;;;;12.87;9.90;;;;;;;14.16;55.19;98325.13;6914747;28;20218;-80
2021/10/29 19:49:56;;;;;;;15.93;11.07;;;;;;;12.95;57.72;98334.19;6897702;28;20200;-79
2021/10/29 19:53:18;;;;;;;13.47;10.67;;;;;;;13.04;58.05;98334.69;6886778;28;20228;-79
2021/10/29 19:56:42;;;;;;;14.67;11.70;;;;;;;13.21;58.05;98344.59;6887273;28;20291;-79
2021/10/29 20:00:05;;;;;;;15.33;13.50;;;;;;;13.37;57.56;98348.50;6887814;28;20315;-79
2021/10/29 20:03:27;;;;;;;17.87;13.27;;;;;;;13.19;57.39;98357.56;6886724;28;20232;-79
2021/10/29 20:06:48;;;;;;;14.83;12.43;;;;;;;13.17;57.78;98369.66;6886907;28;20197;-80
2021/10/29 20:10:10;;;;;;;11.67;10.13;;;;;;;13.39;56.77;98359.94;6906662;28;20226;-79
2021/10/29 20:13:35;;;;;;;12.57;10.73;;;;;;;12.56;59.22;98372.59;6913588;28;20234;-80
2021/10/29 20:16:57;;;;;;;15.83;10.80;;;;;;;12.35;60.14;98369.53;6914645;28;20187;-80
2021/10/29 20:20:19;;;;;;;14.30;10.50;;;;;;;12.76;58.92;98370.44;6914259;28;20242;-79
2021/10/29 20:23:41;;;;;;;13.33;10.27;;;;;;;12.65;59.63;98378.50;6914093;28;20253;-79
2021/10/29 20:27:03;;;;;;;12.50;10.17;;;;;;;12.95;58.43;98373.91;6914515;28;20666;-79
2021/10/29 20:30:27;;;;;;;15.40;11.00;;;;;;;12.91;57.94;98365.44;6891483;28;20667;-80
2021/10/29 20:33:49;;;;;;;13.03;8.90;;;;;;;11.94;58.24;98321.59;6886707;28;20196;-80
2021/10/29 20:37:10;;;;;;;13.63;9.53;;;;;;;12.41;58.47;98372.19;6901665;28;20842;-79
2021/10/29 20:40:32;;;;;;;11.63;9.83;;;;;;;12.50;58.39;98359.97;6914487;28;20281;-79
2021/10/29 20:43:54;;;;;;;35.00;20.33;;;;;;;12.72;57.45;98366.56;6913868;28;20215;-79
2021/10/29 20:47:17;;;;;;;13.77;10.40;;;;;;;12.31;57.92;98379.16;6914470;28;20208;-79
2021/10/29 20:50:39;;;;;;;12.90;10.53;;;;;;;12.19;59.16;98381.78;6914139;28;20231;-79
2021/10/29 20:54:01;;;;;;;13.13;10.07;;;;;;;12.12;59.12;98345.91;6913474;28;20238;-79
2021/10/29 20:57:22;;;;;;;14.43;10.60;;;;;;;12.32;58.82;98376.22;6914036;28;20196;-79
